GCXO/TFN METAR and TAF weather

Enter ICAO airport designator
Station Type Date Time Source
GCXO METAR 2019/09/20 20:30 UTC NOAA

GCXO 202030Z 30011KT 9999 FEW004 18/16 Q1019 NOSIG


Station Type Date Time Source
GCXO Decoded METAR 2019/09/20 20:30 UTC NOAA

Tenerife / Los Rodeos, Spain (GCXO) 28-28N 016-19W 617M
Sep 20, 2019 - 04:30 PM EDT / 2019.09.20 2030 UTC
Wind: from the WNW (300 degrees) at 13 MPH (11 KT):0
Visibility: greater than 7 mile(s):0
Sky conditions: mostly clear
Temperature: 64 F (18 C)
Dew Point: 60 F (16 C)
Relative Humidity: 88%
Pressure (altimeter): 30.09 in. Hg (1019 hPa)
ob: GCXO 202030Z 30011KT 9999 FEW004 18/16 Q1019 NOSIG
cycle: 20

Station Type Date Time Source
GCXO TAF 2019/09/20 21:27 UTC NOAA

TAF GCXO 202000Z 2021/2121 30009KT 9999 FEW003 TX25/2113Z TN16/2105Z
TEMPO 2021/2108 BKN003 PROB30
TEMPO 2021/2108 3000 BCFG

Example: see airport list